Time;durP1;ratioP1;P1;durP2;ratioP2;P2;SDS_P1;SDS_P2;PMS_P1;PMS_P2;Temp;Humidity;BMP_temperature;BMP_pressure;BME280_temperature;BME280_humidity;BME280_pressure;Samples;Min_cycle;Max_cycle;Signal;HPM_P1;HPM_P2
2023/04/30 05:00:25;;;;;;;11.00;10.00;;;13.10;97.20;;;;;;1741364;28;20594;-65
2023/04/30 05:01:16;;;;;;;11.23;10.13;;;13.10;97.20;;;;;;1741341;28;20334;-65
2023/04/30 05:02:08;;;;;;;11.27;10.20;;;13.10;97.20;;;;;;1741456;28;20654;-65
2023/04/30 05:02:58;;;;;;;10.30;9.40;;;13.10;97.20;;;;;;1741344;28;20199;-66
2023/04/30 05:03:52;;;;;;;10.80;9.70;;;13.10;97.20;;;;;;1741355;28;20209;-64
2023/04/30 05:04:43;;;;;;;10.95;9.95;;;13.10;97.20;;;;;;1741286;28;20203;-65
2023/04/30 05:05:35;;;;;;;10.40;9.50;;;13.10;97.20;;;;;;1741309;28;20231;-64
2023/04/30 05:06:25;;;;;;;10.70;9.68;;;13.10;97.20;;;;;;1741001;28;20203;-64
2023/04/30 05:07:17;;;;;;;9.73;8.90;;;13.10;97.20;;;;;;1741211;28;20202;-64
2023/04/30 05:08:08;;;;;;;10.88;9.88;;;13.10;97.20;;;;;;1741313;28;20199;-64
2023/04/30 05:09:00;;;;;;;9.97;8.77;;;13.10;97.20;;;;;;1741308;28;20233;-65
2023/04/30 05:09:50;;;;;;;10.70;9.73;;;13.10;97.20;;;;;;1741447;28;20226;-65
2023/04/30 05:10:42;;;;;;;10.80;9.80;;;13.10;97.20;;;;;;1741189;28;20222;-65
2023/04/30 05:11:33;;;;;;;11.20;10.30;;;13.10;97.20;;;;;;1741377;28;20207;-66
2023/04/30 05:12:24;;;;;;;10.10;9.20;;;13.10;97.20;;;;;;1741289;28;20191;-65
2023/04/30 05:13:15;;;;;;;10.30;9.30;;;13.10;97.20;;;;;;1741380;28;20206;-65
2023/04/30 05:14:07;;;;;;;10.87;9.87;;;13.10;97.20;;;;;;1741346;28;20195;-65
2023/04/30 05:14:58;;;;;;;11.40;10.30;;;13.10;97.20;;;;;;1741253;28;20581;-65
2023/04/30 05:15:52;;;;;;;11.10;10.10;;;13.20;97.20;;;;;;1741183;28;20195;-65
2023/04/30 05:16:43;;;;;;;11.15;10.15;;;13.20;97.20;;;;;;1740896;28;20207;-66
2023/04/30 05:17:35;;;;;;;11.30;10.30;;;13.20;97.20;;;;;;1741348;28;20209;-66
2023/04/30 05:18:25;;;;;;;10.30;9.40;;;13.20;97.20;;;;;;1741469;28;20282;-65
2023/04/30 05:19:17;;;;;;;10.53;9.70;;;13.20;97.20;;;;;;1741312;28;20249;-65
2023/04/30 05:20:09;;;;;;;10.50;9.40;;;13.20;97.20;;;;;;1741310;28;20654;-65
2023/04/30 05:21:03;;;;;;;10.57;9.68;;;13.30;97.20;;;;;;1741270;28;20728;-65
2023/04/30 05:21:53;;;;;;;11.15;10.15;;;13.30;97.20;;;;;;1741157;28;20619;-65
2023/04/30 05:22:45;;;;;;;10.10;9.20;;;13.30;97.20;;;;;;1741260;28;20576;-65
2023/04/30 05:23:36;;;;;;;10.95;9.93;;;13.30;97.20;;;;;;1741228;28;20556;-65
2023/04/30 05:24:28;;;;;;;10.83;9.77;;;13.30;97.20;;;;;;1741351;28;20571;-65
2023/04/30 05:25:19;;;;;;;11.05;10.05;;;13.30;97.20;;;;;;1741303;28;20608;-65
2023/04/30 05:26:10;;;;;;;10.07;9.17;;;13.40;97.20;;;;;;1741200;28;20199;-65
2023/04/30 05:27:04;;;;;;;10.95;9.88;;;13.40;97.20;;;;;;1740955;28;20709;-64
2023/04/30 05:27:56;;;;;;;10.93;9.93;;;13.40;97.20;;;;;;1741234;28;20226;-64
2023/04/30 05:28:46;;;;;;;12.15;10.95;;;13.50;97.20;;;;;;1741121;28;20219;-65
2023/04/30 05:29:38;;;;;;;11.33;10.23;;;13.50;97.20;;;;;;1741275;28;20265;-65
2023/04/30 05:30:29;;;;;;;11.30;10.23;;;13.50;97.20;;;;;;1740678;28;20634;-65
2023/04/30 05:31:22;;;;;;;11.23;10.23;;;13.50;97.20;;;;;;1741195;28;20191;-66
2023/04/30 05:32:13;;;;;;;11.15;10.02;;;13.60;97.20;;;;;;1741136;28;20438;-65
2023/04/30 05:33:04;;;;;;;11.30;10.20;;;13.60;97.20;;;;;;1741213;28;20195;-67
2023/04/30 05:33:55;;;;;;;12.02;10.88;;;13.60;97.20;;;;;;1741123;28;20199;-65
2023/04/30 05:34:47;;;;;;;11.50;10.40;;;13.70;97.20;;;;;;1741174;28;20662;-65
2023/04/30 05:35:37;;;;;;;11.40;10.30;;;13.70;97.20;;;;;;1741090;28;20238;-66
2023/04/30 05:36:29;;;;;;;10.70;9.57;;;13.70;97.20;;;;;;1740992;28;20195;-65
2023/04/30 05:37:21;;;;;;;10.55;9.20;;;13.80;97.20;;;;;;1741030;28;20226;-65
2023/04/30 05:38:13;;;;;;;10.70;9.70;;;13.80;97.20;;;;;;1741177;28;20196;-64
2023/04/30 05:39:04;;;;;;;11.82;10.70;;;13.80;97.20;;;;;;1741218;28;20585;-66
2023/04/30 05:39:55;;;;;;;10.43;9.40;;;13.90;97.20;;;;;;1741221;28;20203;-66
2023/04/30 05:40:46;;;;;;;11.43;10.43;;;14.00;97.20;;;;;;1740928;28;20608;-66
2023/04/30 05:41:38;;;;;;;11.83;10.73;;;14.00;97.20;;;;;;1740789;28;20555;-65
2023/04/30 05:42:28;;;;;;;10.95;9.93;;;14.10;97.20;;;;;;1741187;28;20577;-66
2023/04/30 05:43:20;;;;;;;12.30;10.10;;;14.10;97.20;;;;;;1741150;28;20572;-65
2023/04/30 05:44:11;;;;;;;11.68;10.57;;;14.10;97.20;;;;;;1741135;28;20574;-66
2023/04/30 05:45:03;;;;;;;10.77;9.77;;;14.10;97.20;;;;;;1741139;28;20567;-65
2023/04/30 05:45:54;;;;;;;10.85;9.85;;;14.10;97.20;;;;;;1741064;28;20210;-65
2023/04/30 05:46:47;;;;;;;11.73;10.52;;;14.20;97.20;;;;;;1740687;28;20207;-70
2023/04/30 05:47:38;;;;;;;11.32;10.23;;;14.20;97.20;;;;;;1741097;28;20199;-66
2023/04/30 05:48:30;;;;;;;11.17;10.07;;;14.20;97.20;;;;;;1741257;28;20199;-65
2023/04/30 05:49:20;;;;;;;10.82;9.73;;;14.20;97.20;;;;;;1741031;28;20206;-66
2023/04/30 05:50:12;;;;;;;11.30;10.20;;;14.20;97.20;;;;;;1741050;28;20206;-65
2023/04/30 05:51:04;;;;;;;11.38;10.38;;;14.20;97.20;;;;;;1741009;28;20215;-64
2023/04/30 05:51:56;;;;;;;11.40;10.35;;;14.20;97.20;;;;;;1741077;28;20211;-65
2023/04/30 05:52:47;;;;;;;10.43;9.25;;;14.20;97.20;;;;;;1741075;28;20214;-65
2023/04/30 05:53:38;;;;;;;11.00;9.90;;;14.20;97.20;;;;;;1741071;28;20229;-64
2023/04/30 05:54:29;;;;;;;10.73;9.73;;;14.30;97.20;;;;;;1741099;28;20199;-65
2023/04/30 05:55:21;;;;;;;11.20;10.10;;;14.30;97.20;;;;;;1740945;28;20199;-66
2023/04/30 05:56:12;;;;;;;11.88;10.73;;;14.30;97.20;;;;;;1740912;28;20577;-69
2023/04/30 05:57:04;;;;;;;11.43;10.10;;;14.30;97.20;;;;;;1740768;28;20191;-66
2023/04/30 05:57:54;;;;;;;11.48;10.38;;;14.30;97.20;;;;;;1740935;28;20485;-66
2023/04/30 05:58:46;;;;;;;10.37;9.37;;;14.30;97.20;;;;;;1741053;28;20209;-66
2023/04/30 05:59:37;;;;;;;10.85;9.75;;;14.40;97.20;;;;;;1741037;28;20689;-65
2023/04/30 06:00:28;;;;;;;10.17;9.20;;;14.40;97.20;;;;;;1740954;28;20570;-65
2023/04/30 06:01:19;;;;;;;11.63;10.63;;;14.40;97.20;;;;;;1740951;28;20199;-65
2023/04/30 06:02:13;;;;;;;11.75;9.90;;;14.50;97.20;;;;;;1741063;28;20195;-66
2023/04/30 06:03:03;;;;;;;11.68;10.68;;;14.50;97.20;;;;;;1740949;28;20229;-65
2023/04/30 06:03:55;;;;;;;11.40;10.33;;;14.50;97.20;;;;;;1741012;28;20206;-65
2023/04/30 06:04:46;;;;;;;10.15;9.25;;;14.60;97.20;;;;;;1741012;28;20571;-65
2023/04/30 06:05:40;;;;;;;11.27;10.27;;;14.60;97.20;;;;;;1741063;28;20616;-65
2023/04/30 06:06:31;;;;;;;11.07;9.98;;;14.60;97.20;;;;;;1740729;28;20290;-66
2023/04/30 06:07:23;;;;;;;10.63;9.73;;;14.70;97.20;;;;;;1740895;28;20725;-65
2023/04/30 06:08:14;;;;;;;10.85;9.80;;;14.70;97.20;;;;;;1741055;28;20214;-65
2023/04/30 06:09:06;;;;;;;11.97;10.87;;;14.80;97.20;;;;;;1741025;28;20225;-66
2023/04/30 06:09:56;;;;;;;11.45;10.35;;;14.80;97.20;;;;;;1740958;28;20823;-65
2023/04/30 06:10:48;;;;;;;10.57;9.67;;;14.90;97.20;;;;;;1740994;28;20570;-66
2023/04/30 06:11:39;;;;;;;10.77;9.85;;;14.90;97.20;;;;;;1740958;28;20214;-65
2023/04/30 06:12:31;;;;;;;11.03;9.77;;;14.90;97.20;;;;;;1741027;28;20213;-65
2023/04/30 06:13:22;;;;;;;11.30;10.30;;;15.00;97.20;;;;;;1740936;28;20574;-66
2023/04/30 06:14:14;;;;;;;10.20;9.30;;;15.00;97.20;;;;;;1741007;28;20597;-66
2023/04/30 06:15:06;;;;;;;10.18;9.30;;;15.00;97.20;;;;;;1741026;28;20486;-66
2023/04/30 06:15:58;;;;;;;10.85;9.88;;;15.10;97.20;;;;;;1740948;28;20278;-65
2023/04/30 06:16:49;;;;;;;11.27;10.27;;;15.10;97.20;;;;;;1740687;28;20203;-64
2023/04/30 06:17:42;;;;;;;11.63;10.63;;;15.10;97.20;;;;;;1740965;28;20663;-64
2023/04/30 06:18:32;;;;;;;11.07;9.82;;;15.10;97.20;;;;;;1740973;28;20976;-63
2023/04/30 06:19:24;;;;;;;11.40;10.40;;;15.10;97.20;;;;;;1740933;28;20560;-64
2023/04/30 06:20:15;;;;;;;10.80;9.85;;;15.10;97.20;;;;;;1740872;28;20449;-65
2023/04/30 06:21:07;;;;;;;10.83;9.83;;;15.10;97.20;;;;;;1740892;28;20677;-64
2023/04/30 06:21:57;;;;;;;11.25;10.25;;;15.10;97.20;;;;;;1741067;28;20446;-64
2023/04/30 06:22:49;;;;;;;11.50;10.40;;;15.10;97.20;;;;;;1741025;28;20191;-64
2023/04/30 06:23:40;;;;;;;12.60;10.75;;;15.20;97.20;;;;;;1740974;28;20199;-64
2023/04/30 06:24:31;;;;;;;11.23;10.27;;;15.20;97.20;;;;;;1741128;28;20206;-65
2023/04/30 06:25:22;;;;;;;10.73;9.57;;;15.20;97.20;;;;;;1740925;28;20693;-64
2023/04/30 06:26:14;;;;;;;11.10;10.00;;;15.20;97.20;;;;;;1740795;28;20715;-65
2023/04/30 06:27:05;;;;;;;11.40;10.30;;;15.30;97.20;;;;;;1740840;28;20203;-64
2023/04/30 06:27:57;;;;;;;10.53;9.50;;;15.30;97.20;;;;;;1741022;28;20199;-64
2023/04/30 06:28:47;;;;;;;11.07;10.02;;;15.30;97.20;;;;;;1740859;28;20474;-64
2023/04/30 06:29:39;;;;;;;11.17;10.13;;;15.40;97.20;;;;;;1741054;28;20207;-65
2023/04/30 06:30:30;;;;;;;11.02;10.02;;;15.40;97.20;;;;;;1740381;28;20219;-65
2023/04/30 06:31:22;;;;;;;10.77;9.68;;;15.50;97.20;;;;;;1740859;28;20203;-65
2023/04/30 06:32:13;;;;;;;11.98;10.80;;;15.50;97.20;;;;;;1740927;28;20206;-65
2023/04/30 06:33:06;;;;;;;10.53;9.63;;;15.50;97.20;;;;;;1740890;28;20199;-65
2023/04/30 06:33:56;;;;;;;10.40;9.50;;;15.50;97.20;;;;;;1740941;28;20245;-65
2023/04/30 06:34:48;;;;;;;11.27;10.20;;;15.60;97.20;;;;;;1740985;28;20200;-64
2023/04/30 06:35:39;;;;;;;11.20;10.00;;;15.60;97.20;;;;;;1740921;28;20243;-65
2023/04/30 06:36:31;;;;;;;11.00;9.93;;;15.60;97.20;;;;;;1740577;28;20191;-65
2023/04/30 06:37:22;;;;;;;10.98;9.90;;;15.60;97.20;;;;;;1740791;28;20459;-66
2023/04/30 06:38:13;;;;;;;11.17;10.07;;;15.70;97.20;;;;;;1740920;28;20203;-65
2023/04/30 06:39:04;;;;;;;11.68;10.43;;;15.70;97.20;;;;;;1740982;28;20210;-65
2023/04/30 06:39:56;;;;;;;10.37;9.47;;;15.70;97.20;;;;;;1740956;28;20199;-64
2023/04/30 06:40:47;;;;;;;10.93;9.95;;;15.70;97.20;;;;;;1740865;28;20233;-65
2023/04/30 06:41:38;;;;;;;10.67;9.63;;;15.80;97.20;;;;;;1740895;28;20728;-66
2023/04/30 06:42:33;;;;;;;10.65;9.65;;;15.80;97.20;;;;;;1741012;28;20442;-65
2023/04/30 06:43:24;;;;;;;13.13;9.82;;;15.80;97.20;;;;;;1740877;28;20195;-66
2023/04/30 06:44:15;;;;;;;11.18;10.02;;;15.90;97.20;;;;;;1740877;28;20587;-65
2023/04/30 06:45:08;;;;;;;11.60;10.60;;;15.90;97.20;;;;;;1740790;28;20199;-65
2023/04/30 06:45:59;;;;;;;11.30;10.30;;;16.00;97.20;;;;;;1740861;28;20214;-65
2023/04/30 06:46:51;;;;;;;9.60;8.80;;;16.00;97.20;;;;;;1740558;28;20227;-65
2023/04/30 06:47:42;;;;;;;11.57;10.52;;;16.00;97.20;;;;;;1740812;28;20938;-66
2023/04/30 06:48:35;;;;;;;10.50;9.60;;;16.10;97.20;;;;;;1740958;28;20661;-65
2023/04/30 06:49:25;;;;;;;10.70;9.68;;;16.10;97.20;;;;;;1740768;28;20342;-65
2023/04/30 06:50:17;;;;;;;11.20;10.20;;;16.10;97.20;;;;;;1740801;28;20199;-65
2023/04/30 06:51:08;;;;;;;9.95;8.95;;;16.20;97.20;;;;;;1740923;28;20199;-65
2023/04/30 06:52:00;;;;;;;10.00;9.10;;;16.20;97.20;;;;;;1740774;28;20663;-65
2023/04/30 06:52:51;;;;;;;10.15;9.25;;;16.30;97.20;;;;;;1740891;28;20207;-65
2023/04/30 06:53:42;;;;;;;9.80;8.87;;;16.30;97.20;;;;;;1741533;28;20203;-65
2023/04/30 06:54:33;;;;;;;10.45;9.55;;;16.40;97.20;;;;;;1742320;28;20207;-65
2023/04/30 06:55:25;;;;;;;10.87;9.93;;;16.50;97.20;;;;;;1742124;28;20199;-65
2023/04/30 06:56:16;;;;;;;10.50;9.50;;;16.50;97.20;;;;;;1741828;28;20203;-65
2023/04/30 06:57:07;;;;;;;10.87;9.87;;;16.50;97.20;;;;;;1741974;28;20202;-64
2023/04/30 06:57:58;;;;;;;10.25;9.35;;;16.60;97.20;;;;;;1742115;28;20203;-65
2023/04/30 06:58:50;;;;;;;10.00;9.05;;;16.60;97.20;;;;;;1742150;28;20290;-65
2023/04/30 06:59:41;;;;;;;10.98;9.98;;;16.60;97.20;;;;;;1742088;28;20229;-65
2023/04/30 07:00:33;;;;;;;10.23;9.33;;;16.70;97.20;;;;;;1742200;28;20219;-65
2023/04/30 07:01:23;;;;;;;9.30;8.50;;;16.70;97.20;;;;;;1742054;28;20207;-65
2023/04/30 07:02:15;;;;;;;12.37;9.83;;;16.70;97.20;;;;;;1742093;28;20203;-67
2023/04/30 07:03:06;;;;;;;10.13;9.15;;;16.70;97.20;;;;;;1742018;28;20203;-67
2023/04/30 07:03:59;;;;;;;10.10;9.17;;;16.70;97.20;;;;;;1741966;28;20203;-65
2023/04/30 07:04:50;;;;;;;10.43;9.50;;;16.80;97.20;;;;;;1742114;28;20545;-66
2023/04/30 07:05:42;;;;;;;10.30;9.40;;;16.80;97.20;;;;;;1742104;28;20210;-65
2023/04/30 07:06:33;;;;;;;10.27;9.43;;;16.90;97.20;;;;;;1741811;28;20208;-65
2023/04/30 07:07:24;;;;;;;10.47;9.57;;;16.90;97.20;;;;;;1741958;28;20203;-64
2023/04/30 07:08:15;;;;;;;10.45;9.55;;;17.00;97.20;;;;;;1741965;28;20210;-65
2023/04/30 07:09:07;;;;;;;9.93;9.13;;;17.10;97.20;;;;;;1741931;28;20198;-65
2023/04/30 07:09:58;;;;;;;9.93;9.02;;;17.10;97.20;;;;;;1742074;28;20681;-65
2023/04/30 07:10:49;;;;;;;8.73;8.03;;;17.10;97.20;;;;;;1741905;28;20770;-66
2023/04/30 07:11:40;;;;;;;10.10;9.15;;;17.20;97.20;;;;;;1742009;28;20210;-66
2023/04/30 07:12:32;;;;;;;9.85;8.98;;;17.20;97.20;;;;;;1742054;28;20214;-65
2023/04/30 07:13:23;;;;;;;9.18;8.32;;;17.30;97.20;;;;;;1741938;28;20242;-67
2023/04/30 07:14:15;;;;;;;9.57;8.87;;;17.30;97.20;;;;;;1742058;28;20207;-65
2023/04/30 07:15:07;;;;;;;9.73;8.82;;;17.30;97.20;;;;;;1742113;28;20199;-67
2023/04/30 07:15:58;;;;;;;9.30;8.40;;;17.40;97.20;;;;;;1741998;28;20203;-67
2023/04/30 07:16:49;;;;;;;9.95;9.05;;;17.50;97.20;;;;;;1741650;28;20203;-67
2023/04/30 07:17:41;;;;;;;10.37;9.47;;;17.50;97.20;;;;;;1741923;28;20213;-65
2023/04/30 07:18:32;;;;;;;8.90;8.10;;;17.60;97.20;;;;;;1741956;28;20494;-65
2023/04/30 07:19:25;;;;;;;9.60;8.80;;;17.70;97.20;;;;;;1741960;28;20244;-64
2023/04/30 07:20:16;;;;;;;8.20;7.50;;;17.80;97.20;;;;;;1741841;28;20199;-65
2023/04/30 07:21:09;;;;;;;8.97;8.17;;;17.90;97.20;;;;;;1742009;28;20214;-65
2023/04/30 07:22:00;;;;;;;9.52;8.70;;;17.90;97.20;;;;;;1741946;28;20199;-64
2023/04/30 07:22:53;;;;;;;9.57;8.60;;;18.00;97.20;;;;;;1741990;28;20195;-64
2023/04/30 07:23:44;;;;;;;8.70;7.95;;;18.00;97.20;;;;;;1741900;28;20502;-65
2023/04/30 07:24:36;;;;;;;8.35;7.55;;;18.00;97.20;;;;;;1741973;28;20213;-65
2023/04/30 07:25:26;;;;;;;8.35;7.60;;;18.00;97.20;;;;;;1741922;28;20234;-65
2023/04/30 07:26:18;;;;;;;8.90;8.10;;;18.10;97.20;;;;;;1741706;28;20225;-65
2023/04/30 07:27:09;;;;;;;9.15;8.45;;;18.10;97.20;;;;;;1741926;28;20203;-64
2023/04/30 07:28:01;;;;;;;9.27;8.48;;;18.10;97.20;;;;;;1741845;28;20209;-64
2023/04/30 07:28:52;;;;;;;9.35;8.45;;;18.00;97.20;;;;;;1741984;28;20210;-66
2023/04/30 07:29:43;;;;;;;9.23;8.33;;;18.00;97.20;;;;;;1741825;28;20233;-67
2023/04/30 07:30:34;;;;;;;9.20;8.35;;;18.00;97.20;;;;;;1741404;28;20277;-67
2023/04/30 07:31:26;;;;;;;9.90;8.93;;;18.00;97.20;;;;;;1741889;28;20199;-67
2023/04/30 07:32:17;;;;;;;8.82;8.00;;;18.00;97.20;;;;;;1741917;28;20446;-68
2023/04/30 07:33:09;;;;;;;8.83;8.10;;;18.10;97.20;;;;;;1742040;28;20200;-67
2023/04/30 07:33:59;;;;;;;9.13;8.30;;;18.10;97.20;;;;;;1741908;28;20206;-67
2023/04/30 07:34:53;;;;;;;8.67;7.97;;;18.20;97.20;;;;;;1741974;28;20196;-65
2023/04/30 07:35:43;;;;;;;8.57;7.88;;;18.20;97.20;;;;;;1741883;28;20667;-65
2023/04/30 07:36:37;;;;;;;8.67;7.97;;;18.20;97.20;;;;;;1741629;28;20621;-65
2023/04/30 07:37:28;;;;;;;10.35;7.82;;;18.20;97.20;;;;;;1741750;28;20682;-65
2023/04/30 07:38:20;;;;;;;8.87;8.17;;;18.20;97.20;;;;;;1741874;28;20570;-64
2023/04/30 07:39:11;;;;;;;8.05;7.40;;;18.30;97.20;;;;;;1741903;28;20598;-65
2023/04/30 07:40:03;;;;;;;8.37;7.57;;;18.30;97.20;;;;;;1741787;28;20257;-65
2023/04/30 07:40:54;;;;;;;9.52;7.88;;;18.30;97.20;;;;;;1741831;28;20227;-66
2023/04/30 07:41:45;;;;;;;8.27;7.57;;;18.30;97.20;;;;;;1741839;28;20201;-64
2023/04/30 07:42:36;;;;;;;8.48;7.70;;;18.30;97.20;;;;;;1741796;28;20218;-65
2023/04/30 07:43:28;;;;;;;7.77;7.07;;;18.30;97.20;;;;;;1741927;28;20201;-65
2023/04/30 07:44:20;;;;;;;7.80;7.00;;;18.30;97.20;;;;;;1741768;28;20207;-65
2023/04/30 07:45:12;;;;;;;8.15;7.45;;;18.30;97.20;;;;;;1741799;28;20203;-65
2023/04/30 07:46:03;;;;;;;8.20;7.50;;;18.30;97.20;;;;;;1741757;28;20207;-67
2023/04/30 07:46:55;;;;;;;7.97;7.17;;;18.30;97.20;;;;;;1741440;28;20207;-68
2023/04/30 07:47:47;;;;;;;7.40;6.53;;;18.30;97.20;;;;;;1741780;28;20448;-65
2023/04/30 07:48:39;;;;;;;7.55;6.93;;;18.30;97.20;;;;;;1741805;28;20249;-65
2023/04/30 07:49:30;;;;;;;8.13;7.40;;;18.30;97.20;;;;;;1741755;28;20203;-64
2023/04/30 07:50:23;;;;;;;8.60;7.70;;;18.30;97.20;;;;;;1741680;28;20204;-65
2023/04/30 07:51:14;;;;;;;7.68;7.07;;;18.30;97.20;;;;;;1741781;28;20437;-65
2023/04/30 07:52:09;;;;;;;7.43;6.83;;;18.30;97.20;;;;;;1741739;28;20279;-65
2023/04/30 07:53:01;;;;;;;8.27;7.57;;;18.30;97.20;;;;;;1741809;28;20210;-66
2023/04/30 07:53:52;;;;;;;8.68;7.88;;;18.30;97.20;;;;;;1741800;28;20195;-65
2023/04/30 07:54:43;;;;;;;8.65;7.85;;;18.30;97.20;;;;;;1741819;28;20682;-67
2023/04/30 07:55:35;;;;;;;7.40;6.80;;;18.30;97.20;;;;;;1741908;28;20559;-69
2023/04/30 07:56:26;;;;;;;8.40;7.70;;;18.40;97.20;;;;;;1741406;28;20206;-66
2023/04/30 07:57:17;;;;;;;7.77;7.17;;;18.40;97.20;;;;;;1741694;28;20199;-65
2023/04/30 07:58:08;;;;;;;7.80;7.10;;;18.40;97.20;;;;;;1741799;28;20203;-65
2023/04/30 07:59:00;;;;;;;8.50;7.80;;;18.40;97.20;;;;;;1741698;28;20230;-67
2023/04/30 07:59:50;;;;;;;8.80;8.02;;;18.40;97.20;;;;;;1741703;28;20200;-67
2023/04/30 08:00:42;;;;;;;7.20;6.60;;;18.50;97.20;;;;;;1741661;28;20226;-65
2023/04/30 08:01:33;;;;;;;8.07;7.20;;;18.50;97.20;;;;;;1741838;28;20203;-65
2023/04/30 08:02:24;;;;;;;9.13;8.23;;;18.50;97.20;;;;;;1741623;28;20227;-65
2023/04/30 08:03:15;;;;;;;8.18;7.35;;;18.60;97.20;;;;;;1741735;28;20202;-64
2023/04/30 08:04:08;;;;;;;8.00;7.30;;;18.70;97.20;;;;;;1741533;28;20199;-66
2023/04/30 08:04:58;;;;;;;8.15;7.35;;;18.70;97.20;;;;;;1741671;28;20217;-65
2023/04/30 08:05:52;;;;;;;8.30;7.60;;;18.80;97.20;;;;;;1741773;28;20281;-65
2023/04/30 08:06:43;;;;;;;8.27;7.57;;;18.80;97.20;;;;;;1741358;28;20203;-65
2023/04/30 08:07:34;;;;;;;7.73;7.03;;;18.90;97.20;;;;;;1741672;28;20201;-65
2023/04/30 08:08:25;;;;;;;7.68;6.97;;;19.00;97.20;;;;;;1741648;28;20199;-65
2023/04/30 08:09:17;;;;;;;7.00;6.40;;;19.00;97.20;;;;;;1741687;28;20199;-65
2023/04/30 08:10:08;;;;;;;8.00;7.30;;;19.10;97.20;;;;;;1741687;28;20719;-65
2023/04/30 08:10:59;;;;;;;7.25;6.65;;;19.10;97.20;;;;;;1741561;28;20647;-67
2023/04/30 08:11:51;;;;;;;7.25;6.57;;;19.20;97.20;;;;;;1741654;28;20595;-67
2023/04/30 08:12:43;;;;;;;6.93;6.28;;;19.30;97.20;;;;;;1741801;28;20211;-67
2023/04/30 08:13:35;;;;;;;6.30;5.80;;;19.50;97.20;;;;;;1741757;28;20218;-67
2023/04/30 08:14:27;;;;;;;7.60;7.00;;;19.60;97.20;;;;;;1741621;28;20285;-66
2023/04/30 08:15:20;;;;;;;7.00;6.40;;;19.60;97.20;;;;;;1741687;28;20227;-67
2023/04/30 08:16:12;;;;;;;7.47;6.88;;;19.70;97.20;;;;;;1741607;28;20274;-67
2023/04/30 08:17:03;;;;;;;7.22;6.53;;;19.80;97.20;;;;;;1741356;28;20213;-68
2023/04/30 08:17:54;;;;;;;7.50;6.90;;;20.00;97.20;;;;;;1741743;28;20198;-65
2023/04/30 08:18:45;;;;;;;6.82;6.22;;;20.10;97.20;;;;;;1741711;28;20203;-65
2023/04/30 08:19:37;;;;;;;7.70;7.00;;;20.20;97.20;;;;;;1741634;28;20203;-65
2023/04/30 08:20:27;;;;;;;7.00;6.40;;;20.40;97.20;;;;;;1741584;28;20445;-65
2023/04/30 08:21:21;;;;;;;8.23;7.40;;;20.50;97.20;;;;;;1741629;28;20198;-67
2023/04/30 08:22:11;;;;;;;7.00;6.40;;;20.50;97.20;;;;;;1741604;28;20204;-67
2023/04/30 08:23:03;;;;;;;6.83;6.23;;;20.60;97.20;;;;;;1741630;28;20199;-67
2023/04/30 08:23:54;;;;;;;6.88;6.35;;;20.70;97.20;;;;;;1741643;28;20198;-67
2023/04/30 08:24:45;;;;;;;7.40;6.70;;;20.70;97.20;;;;;;1741580;28;20195;-67
2023/04/30 08:25:36;;;;;;;6.82;6.32;;;20.80;97.20;;;;;;1741570;28;20268;-67
2023/04/30 08:26:28;;;;;;;6.57;5.97;;;20.80;97.20;;;;;;1741276;28;20244;-68
2023/04/30 08:27:18;;;;;;;6.80;6.20;;;20.80;97.20;;;;;;1741459;28;20203;-66
2023/04/30 08:28:10;;;;;;;6.70;6.20;;;20.90;97.20;;;;;;1741534;28;20199;-68
2023/04/30 08:29:01;;;;;;;6.18;5.68;;;21.00;97.20;;;;;;1741564;28;20420;-67
2023/04/30 08:29:53;;;;;;;7.00;6.50;;;21.10;97.20;;;;;;1741528;28;20197;-66
2023/04/30 08:30:43;;;;;;;7.10;6.50;;;21.10;97.20;;;;;;1740921;28;20470;-67
2023/04/30 08:31:36;;;;;;;7.83;7.20;;;21.30;97.20;;;;;;1741580;28;20207;-68
2023/04/30 08:32:27;;;;;;;8.50;7.53;;;21.30;97.20;;;;;;1741488;28;20341;-67
2023/04/30 08:33:18;;;;;;;7.10;6.50;;;21.40;97.20;;;;;;1741515;28;20203;-67
2023/04/30 08:34:09;;;;;;;6.57;6.05;;;21.40;97.20;;;;;;1741479;28;20618;-66
2023/04/30 08:35:01;;;;;;;6.50;6.00;;;21.50;97.20;;;;;;1741540;28;20199;-67
2023/04/30 08:35:52;;;;;;;6.80;6.20;;;21.50;97.20;;;;;;1741499;28;20588;-68
2023/04/30 08:36:45;;;;;;;6.18;5.57;;;21.50;97.20;;;;;;1741138;28;20207;-67
2023/04/30 08:37:36;;;;;;;6.95;6.35;;;21.50;97.20;;;;;;1741490;28;20231;-67
2023/04/30 08:38:28;;;;;;;6.80;6.30;;;21.40;97.20;;;;;;1741415;28;20195;-67
2023/04/30 08:39:19;;;;;;;6.88;6.28;;;21.40;97.20;;;;;;1741463;28;20206;-66
2023/04/30 08:40:12;;;;;;;6.10;5.60;;;21.50;97.20;;;;;;1741439;28;20231;-67
2023/04/30 08:41:10;;;;;;;6.38;5.88;;;21.50;97.20;;;;;;1741511;28;20195;-67
2023/04/30 08:42:03;;;;;;;7.35;6.72;;;21.60;97.20;;;;;;1741543;28;20283;-67
2023/04/30 08:43:03;;;;;;;9.70;7.15;;;21.60;97.20;;;;;;1741504;28;20210;-66
2023/04/30 08:44:01;;;;;;;6.05;5.57;;;21.60;97.20;;;;;;1741478;28;20217;-67
2023/04/30 08:44:51;;;;;;;6.40;5.80;;;21.60;97.20;;;;;;1741448;28;20268;-68
2023/04/30 08:45:43;;;;;;;6.23;5.67;;;21.70;97.20;;;;;;1741519;28;20248;-68
2023/04/30 08:46:37;;;;;;;6.90;6.30;;;21.70;97.20;;;;;;1741041;28;20237;-67
2023/04/30 08:47:29;;;;;;;6.30;5.72;;;21.70;97.20;;;;;;1741414;28;20202;-67
2023/04/30 08:48:23;;;;;;;6.53;6.00;;;21.60;97.20;;;;;;1741370;28;20198;-69
2023/04/30 08:49:14;;;;;;;6.18;5.68;;;21.60;97.20;;;;;;1741425;28;20753;-67
2023/04/30 08:50:07;;;;;;;6.50;5.90;;;21.50;97.20;;;;;;1741288;28;20222;-67
2023/04/30 08:51:00;;;;;;;5.25;4.82;;;21.50;97.20;;;;;;1741313;28;20462;-69
2023/04/30 08:51:53;;;;;;;5.70;5.30;;;21.50;97.20;;;;;;1741326;28;20199;-67
2023/04/30 08:52:44;;;;;;;5.70;5.20;;;21.50;97.20;;;;;;1741394;28;20706;-67
2023/04/30 08:53:37;;;;;;;6.57;6.07;;;21.50;97.20;;;;;;1741366;28;20585;-67
2023/04/30 08:54:30;;;;;;;5.40;5.00;;;21.50;97.20;;;;;;1741368;28;20499;-67
2023/04/30 08:55:22;;;;;;;5.00;4.60;;;21.50;97.20;;;;;;1741269;28;20196;-67
2023/04/30 08:56:13;;;;;;;5.45;4.95;;;21.40;97.20;;;;;;1741158;28;20542;-66
2023/04/30 08:57:06;;;;;;;5.33;4.80;;;21.30;97.20;;;;;;1741119;28;20195;-67
2023/04/30 08:57:56;;;;;;;5.30;4.90;;;21.30;97.20;;;;;;1741323;28;20212;-66
2023/04/30 08:58:48;;;;;;;6.00;5.40;;;21.30;97.20;;;;;;1741433;28;20670;-67
2023/04/30 08:59:39;;;;;;;5.43;5.03;;;21.20;97.20;;;;;;1741256;28;20628;-67
2023/04/30 09:00:32;;;;;;;5.43;5.00;;;21.20;97.20;;;;;;1741311;28;20245;-66
2023/04/30 09:01:24;;;;;;;6.30;5.25;;;21.10;97.20;;;;;;1741390;28;20442;-67
2023/04/30 09:02:15;;;;;;;6.20;5.70;;;21.10;97.20;;;;;;1741319;28;20203;-68
2023/04/30 09:03:07;;;;;;;6.22;5.72;;;21.00;97.20;;;;;;1741281;28;20231;-68
2023/04/30 09:03:58;;;;;;;5.90;5.40;;;21.00;97.20;;;;;;1741362;28;20223;-67
2023/04/30 09:04:49;;;;;;;5.93;5.50;;;20.90;97.20;;;;;;1741272;28;20666;-68
2023/04/30 09:05:41;;;;;;;5.35;4.85;;;20.90;97.20;;;;;;1741199;28;20261;-68
2023/04/30 09:06:32;;;;;;;6.15;5.60;;;20.80;97.20;;;;;;1741005;28;20205;-67
2023/04/30 09:07:27;;;;;;;6.30;5.80;;;20.80;97.20;;;;;;1741167;28;20199;-67
2023/04/30 09:08:45;;;;;;;5.60;5.13;;;20.80;97.20;;;;;;1741260;28;20204;-67
2023/04/30 09:09:38;;;;;;;5.57;5.00;;;20.70;97.20;;;;;;1741304;28;20629;-66
2023/04/30 09:10:33;;;;;;;5.35;4.95;;;20.60;97.20;;;;;;1741086;28;20218;-68
2023/04/30 09:11:25;;;;;;;5.68;5.18;;;20.60;97.20;;;;;;1741171;28;20196;-67
2023/04/30 09:12:18;;;;;;;5.65;5.15;;;20.50;97.20;;;;;;1741203;28;20205;-67
2023/04/30 09:13:10;;;;;;;5.78;5.28;;;20.50;97.20;;;;;;1741273;28;20210;-65
2023/04/30 09:14:02;;;;;;;5.03;4.63;;;20.50;97.20;;;;;;1741169;28;20204;-65
2023/04/30 09:15:01;;;;;;;6.00;5.57;;;20.50;97.20;;;;;;1741304;28;20741;-66
2023/04/30 09:15:52;;;;;;;5.18;4.78;;;20.40;97.20;;;;;;1740877;28;20579;-67
2023/04/30 09:16:45;;;;;;;6.00;5.43;;;20.40;97.20;;;;;;1740602;28;20199;-67
2023/04/30 09:17:37;;;;;;;5.80;5.30;;;20.30;97.20;;;;;;1741215;28;20202;-67
2023/04/30 09:18:29;;;;;;;5.10;4.70;;;20.30;97.20;;;;;;1741167;28;20617;-67
2023/04/30 09:19:23;;;;;;;5.20;4.70;;;20.20;97.20;;;;;;1741210;28;20199;-65
2023/04/30 09:20:16;;;;;;;5.03;4.63;;;20.20;97.20;;;;;;1741124;28;20563;-67
2023/04/30 09:21:07;;;;;;;5.22;4.82;;;20.10;97.20;;;;;;1741228;28;20516;-67
2023/04/30 09:21:59;;;;;;;5.05;4.65;;;20.10;97.20;;;;;;1741181;28;20203;-67
2023/04/30 09:23:05;;;;;;;5.57;4.85;;;20.10;97.20;;;;;;1741215;28;20203;-67
2023/04/30 09:23:59;;;;;;;5.78;5.28;;;20.00;97.20;;;;;;1741188;28;20218;-66
2023/04/30 09:24:50;;;;;;;6.30;5.80;;;20.00;97.20;;;;;;1741168;28;20231;-66
2023/04/30 09:25:42;;;;;;;5.53;5.13;;;20.00;97.20;;;;;;1741110;28;20203;-69
2023/04/30 09:26:36;;;;;;;5.30;4.90;;;20.00;97.20;;;;;;1741006;28;20207;-67
2023/04/30 09:27:27;;;;;;;5.68;4.80;;;19.90;97.20;;;;;;1741103;28;20199;-66